Terminal Aerodrome Forecast
Issued by NWS Twin Cities, MN

Home | Current Version | Previous Version | Text Only | Print | Product List | Glossary Off
Versions: 1 2 3 4 5 6 7 8 9 10 11 12 13 14 15 16 17 18

000
FTUS43 KMPX 211338 AAA
TAFEAU
TAF AMD
KEAU 211338Z 2114/2212 22006KT 5SM BR OVC006
      TEMPO 2114/2116 2SM BR OVC003
     FM211600 24005KT 4SM BR BKN005
     FM211700 20008KT P6SM SCT008
     FM211800 20011KT P6SM SCT250
     FM220000 19005KT P6SM SCT250=

USA.gov is the U.S. government's official web portal to all federal, state and local government web resources and services.